createdAt,value
2022-10-23T00:00:11.638Z,13.90
2022-10-23T00:05:34.603Z,20.50
2022-10-23T00:10:41.720Z,24.90
2022-10-23T00:15:45.060Z,30.00
2022-10-23T00:20:47.925Z,16.90
2022-10-23T00:25:50.728Z,21.70
2022-10-23T00:30:53.737Z,19.00
2022-10-23T00:35:56.534Z,20.20
2022-10-23T00:40:59.438Z,21.40
2022-10-23T00:46:02.443Z,24.80
2022-10-23T00:51:05.633Z,20.60
2022-10-23T00:56:08.458Z,22.30
2022-10-23T01:01:18.459Z,18.70
2022-10-23T01:06:21.193Z,17.70
2022-10-23T01:11:34.582Z,20.50
2022-10-23T01:16:47.051Z,16.40
2022-10-23T01:21:59.739Z,18.30
2022-10-23T01:27:22.613Z,17.40
2022-10-23T01:32:44.321Z,19.80
2022-10-23T01:37:55.254Z,18.70
2022-10-23T01:43:05.755Z,20.00
2022-10-23T01:48:13.933Z,18.40
2022-10-23T01:53:19.124Z,23.10
2022-10-23T01:58:23.211Z,16.80
2022-10-23T02:03:29.232Z,19.50
2022-10-23T02:08:32.494Z,21.20
2022-10-23T02:13:48.142Z,19.40
2022-10-23T02:19:06.819Z,28.20
2022-10-23T02:24:13.509Z,20.10
2022-10-23T02:29:25.427Z,22.20
2022-10-23T02:34:28.431Z,20.30
2022-10-23T02:39:31.337Z,22.80
2022-10-23T02:44:52.773Z,23.10
2022-10-23T02:50:16.671Z,27.70
2022-10-23T02:55:37.323Z,24.00
2022-10-23T03:00:44.106Z,23.70
2022-10-23T03:05:47.091Z,29.20
2022-10-23T03:10:51.304Z,25.60
2022-10-23T03:15:54.217Z,28.00
2022-10-23T03:20:57.020Z,31.30
2022-10-23T03:26:00.042Z,26.60
2022-10-23T03:31:04.274Z,30.30
2022-10-23T03:36:07.851Z,27.60
2022-10-23T03:41:10.699Z,27.70
2022-10-23T03:46:13.706Z,24.40
2022-10-23T03:51:16.505Z,28.50
2022-10-23T03:56:19.410Z,25.50
2022-10-23T04:01:22.330Z,25.30
2022-10-23T04:06:25.240Z,27.10
2022-10-23T04:11:28.123Z,27.20
2022-10-23T04:16:31.027Z,29.50
2022-10-23T04:21:34.038Z,24.50
2022-10-23T04:26:36.937Z,27.00
2022-10-23T04:31:40.045Z,19.20
2022-10-23T04:36:42.948Z,24.60
2022-10-23T04:41:45.856Z,27.00
2022-10-23T04:46:49.069Z,26.50
2022-10-23T04:51:51.970Z,27.40
2022-10-23T04:56:54.871Z,22.70
2022-10-23T05:01:57.915Z,25.60
2022-10-23T05:07:00.785Z,27.60
2022-10-23T05:12:03.686Z,28.30
2022-10-23T05:17:16.323Z,25.60
2022-10-23T05:22:21.045Z,28.20
2022-10-23T05:27:24.153Z,26.90
2022-10-23T05:32:30.463Z,30.60
2022-10-23T05:37:33.800Z,24.80
2022-10-23T05:42:39.469Z,27.10
2022-10-23T05:47:45.918Z,26.30
2022-10-23T05:52:49.448Z,29.30
2022-10-23T05:57:52.258Z,29.20
2022-10-23T06:02:55.155Z,29.50
2022-10-23T06:07:59.695Z,17.90
2022-10-23T06:13:02.501Z,26.40
2022-10-23T06:18:05.808Z,22.50
2022-10-23T06:23:08.920Z,21.90
2022-10-23T06:28:11.721Z,17.90
2022-10-23T06:33:14.524Z,19.60
2022-10-23T06:38:17.637Z,16.40
2022-10-23T06:43:20.536Z,16.90
2022-10-23T06:48:23.279Z,16.10
2022-10-23T06:53:26.043Z,17.90
2022-10-23T06:58:29.145Z,13.40
2022-10-23T07:03:32.774Z,14.40
2022-10-23T07:08:35.753Z,16.20
2022-10-23T07:13:39.910Z,14.00
2022-10-23T07:18:43.432Z,8.90
2022-10-23T07:23:46.227Z,15.60
2022-10-23T07:28:51.691Z,16.50
2022-10-23T07:33:54.594Z,16.90
2022-10-23T07:38:57.397Z,10.40
2022-10-23T07:44:00.303Z,15.30
2022-10-23T07:49:03.106Z,16.50
2022-10-23T07:54:08.031Z,16.80
2022-10-23T07:59:13.753Z,19.40
2022-10-23T08:04:16.540Z,17.20
2022-10-23T08:09:19.327Z,20.40
2022-10-23T08:14:22.132Z,22.50
2022-10-23T08:19:25.044Z,18.20
2022-10-23T08:24:27.937Z,17.70
2022-10-23T08:29:30.739Z,20.90
2022-10-23T08:34:33.751Z,13.30
2022-10-23T08:39:36.853Z,15.70
2022-10-23T08:44:54.948Z,12.40
2022-10-23T08:50:03.657Z,14.20
2022-10-23T08:55:30.213Z,9.40
2022-10-23T09:00:34.075Z,9.10
2022-10-23T09:06:00.131Z,13.90
2022-10-23T09:11:26.134Z,13.60
2022-10-23T09:17:03.516Z,9.60
2022-10-23T09:22:06.865Z,12.20
2022-10-23T09:27:16.950Z,9.70
2022-10-23T09:32:21.377Z,13.30
2022-10-23T09:37:32.366Z,14.70
2022-10-23T09:42:35.167Z,14.20
2022-10-23T09:47:38.072Z,15.20
2022-10-23T09:52:40.975Z,15.20
2022-10-23T09:57:45.488Z,14.00
2022-10-23T10:03:19.662Z,16.80
2022-10-23T10:08:35.460Z,17.00
2022-10-23T10:14:00.178Z,15.50
2022-10-23T10:19:27.761Z,15.10
2022-10-23T10:24:48.072Z,13.60
2022-10-23T10:29:59.784Z,16.20
2022-10-23T10:35:14.777Z,16.80
2022-10-23T10:40:32.836Z,17.30
2022-10-23T10:45:39.975Z,19.40
2022-10-23T10:50:55.535Z,18.60
2022-10-23T10:56:02.176Z,22.00
2022-10-23T11:01:28.346Z,23.70
2022-10-23T11:06:37.527Z,24.30
2022-10-23T11:11:43.810Z,25.80
2022-10-23T11:16:56.240Z,20.70
2022-10-23T11:22:16.759Z,21.60
2022-10-23T11:28:03.635Z,16.80
2022-10-23T11:33:56.262Z,19.30
2022-10-23T11:39:15.959Z,17.70
2022-10-23T11:44:43.239Z,21.40
2022-10-23T11:49:46.139Z,22.40
2022-10-23T11:54:48.944Z,23.70
2022-10-23T11:59:56.657Z,21.50
2022-10-23T12:05:06.936Z,23.80
2022-10-23T12:10:46.701Z,23.00
2022-10-23T12:15:58.455Z,19.00
2022-10-23T12:21:04.804Z,18.40
2022-10-23T12:26:26.545Z,20.10
2022-10-23T12:31:53.722Z,20.50
2022-10-23T12:37:22.658Z,18.10
2022-10-23T12:42:27.991Z,18.80
2022-10-23T12:47:31.074Z,19.30
2022-10-23T12:52:39.766Z,18.30
2022-10-23T12:57:46.141Z,17.60
2022-10-23T13:03:03.941Z,17.80
2022-10-23T13:08:06.988Z,17.60
2022-10-23T13:13:13.580Z,19.00
2022-10-23T13:18:17.820Z,16.70
2022-10-23T13:23:35.055Z,17.40
2022-10-23T13:28:46.871Z,14.40
2022-10-23T13:33:53.212Z,18.00
2022-10-23T13:39:00.529Z,19.00
2022-10-23T13:44:03.465Z,17.00
2022-10-23T13:49:06.368Z,16.80
2022-10-23T13:54:15.107Z,17.30
2022-10-23T13:59:19.039Z,16.30
2022-10-23T14:04:23.895Z,17.20
2022-10-23T14:09:27.449Z,13.70
2022-10-23T14:14:30.311Z,16.40
2022-10-23T14:19:34.143Z,16.70
2022-10-23T14:24:37.244Z,15.60
2022-10-23T14:29:40.866Z,14.50
2022-10-23T14:34:46.025Z,18.60
2022-10-23T14:39:50.294Z,16.00
2022-10-23T14:44:53.377Z,15.00
2022-10-23T14:49:56.785Z,17.70
2022-10-23T14:55:01.738Z,20.00
2022-10-23T15:00:06.639Z,21.50
2022-10-23T15:05:10.206Z,18.60
2022-10-23T15:10:13.184Z,14.30
2022-10-23T15:15:17.349Z,23.90
2022-10-23T15:20:20.250Z,23.10
2022-10-23T15:25:23.158Z,24.20
2022-10-23T15:30:26.680Z,26.10
2022-10-23T15:35:29.477Z,27.50
2022-10-23T15:40:33.047Z,21.70
2022-10-23T15:45:36.409Z,23.70
2022-10-23T15:50:39.313Z,23.20
2022-10-23T15:55:42.115Z,22.40
2022-10-23T16:00:44.919Z,20.70
2022-10-23T16:05:48.229Z,27.60
2022-10-23T16:10:52.058Z,20.60
2022-10-23T16:15:55.267Z,26.30
2022-10-23T16:20:58.069Z,25.40
2022-10-23T16:26:05.693Z,27.70
2022-10-23T16:31:17.731Z,27.60
2022-10-23T16:36:23.066Z,29.70
2022-10-23T16:41:26.277Z,26.30
2022-10-23T16:46:29.280Z,27.80
2022-10-23T16:51:32.441Z,24.60
2022-10-23T16:56:36.138Z,33.70
2022-10-23T17:01:39.616Z,24.70
2022-10-23T17:06:42.948Z,25.70
2022-10-23T17:11:46.361Z,23.70
2022-10-23T17:16:52.042Z,23.70
2022-10-23T17:21:56.107Z,22.60
2022-10-23T17:26:58.964Z,23.70
2022-10-23T17:32:02.276Z,24.00
2022-10-23T17:37:05.386Z,28.50
2022-10-23T17:42:08.707Z,23.20
2022-10-23T17:47:11.470Z,25.20
2022-10-23T17:52:15.250Z,19.90
2022-10-23T17:57:18.052Z,21.10
2022-10-23T18:02:21.064Z,25.40
2022-10-23T18:07:25.883Z,31.60
2022-10-23T18:12:29.708Z,26.00
2022-10-23T18:17:32.719Z,25.80
2022-10-23T18:22:36.264Z,31.90
2022-10-23T18:27:41.703Z,23.20
2022-10-23T18:32:44.833Z,27.50
2022-10-23T18:37:48.633Z,27.20
2022-10-23T18:42:51.435Z,28.50
2022-10-23T18:47:54.237Z,30.40
2022-10-23T18:52:57.449Z,27.00
2022-10-23T18:58:00.255Z,27.30
2022-10-23T19:03:03.054Z,25.90
2022-10-23T19:08:06.211Z,30.40
2022-10-23T19:13:09.063Z,30.70
2022-10-23T19:18:11.967Z,29.00
2022-10-23T19:23:15.966Z,24.10
2022-10-23T19:28:19.313Z,27.00
2022-10-23T19:33:22.112Z,25.50
2022-10-23T19:38:24.915Z,30.40
2022-10-23T19:43:27.819Z,30.90
2022-10-23T19:48:30.721Z,30.70
2022-10-23T19:53:34.350Z,28.10
2022-10-23T19:58:38.272Z,26.80
2022-10-23T20:03:42.350Z,31.10
2022-10-23T20:08:45.411Z,18.10
2022-10-23T20:13:49.944Z,26.40
2022-10-23T20:18:53.065Z,26.50
2022-10-23T20:23:59.452Z,25.10
2022-10-23T20:29:02.250Z,26.80
2022-10-23T20:34:06.894Z,29.80
2022-10-23T20:39:13.791Z,24.60
2022-10-23T20:44:18.567Z,25.80
2022-10-23T20:49:22.314Z,31.40
2022-10-23T20:54:27.728Z,26.00
2022-10-23T20:59:30.632Z,33.20
2022-10-23T21:04:33.894Z,31.10
2022-10-23T21:09:38.089Z,30.00
2022-10-23T21:14:41.086Z,26.90
2022-10-23T21:19:43.988Z,27.90
2022-10-23T21:24:46.995Z,28.00
2022-10-23T21:29:50.041Z,29.40
2022-10-23T21:34:53.008Z,25.40
2022-10-23T21:39:55.812Z,29.90
2022-10-23T21:44:58.614Z,28.30
2022-10-23T21:50:01.413Z,17.00
2022-10-23T21:55:05.002Z,25.90
2022-10-23T22:00:08.885Z,20.50
2022-10-23T22:05:11.663Z,19.90
2022-10-23T22:10:14.708Z,19.40
2022-10-23T22:15:17.677Z,17.10
2022-10-23T22:20:20.585Z,16.00
2022-10-23T22:25:23.485Z,17.20
2022-10-23T22:30:26.394Z,16.40
2022-10-23T22:35:31.236Z,16.80
2022-10-23T22:40:38.470Z,17.00
2022-10-23T22:45:42.885Z,16.70
2022-10-23T22:50:48.552Z,18.30
2022-10-23T22:55:51.863Z,18.80
2022-10-23T23:01:07.693Z,19.70
2022-10-23T23:06:12.111Z,20.30
2022-10-23T23:11:17.181Z,19.60
2022-10-23T23:16:28.268Z,19.30
2022-10-23T23:21:31.678Z,23.10
2022-10-23T23:26:34.583Z,20.40
2022-10-23T23:31:37.494Z,20.70
2022-10-23T23:36:41.283Z,14.80
2022-10-23T23:41:44.132Z,15.60
2022-10-23T23:46:47.016Z,17.60
2022-10-23T23:51:49.932Z,20.80
2022-10-23T23:56:56.614Z,19.00
